Time;durP1;ratioP1;P1;durP2;ratioP2;P2;SDS_P1;SDS_P2;PMS_P1;PMS_P2;Temp;Humidity;BMP_temperature;BMP_pressure;BME280_temperature;BME280_humidity;BME280_pressure;Samples;Min_cycle;Max_cycle;Signal;HPM_P1;HPM_P2
2021/04/12 00:02:01;;;;;;;4.97;4.47;;;7.70;99.90;;;;;;5074442;28;20555;-50
2021/04/12 00:04:35;;;;;;;5.77;5.27;;;7.40;99.90;;;;;;5073975;28;20432;-50
2021/04/12 00:07:07;;;;;;;5.50;4.67;;;7.60;99.90;;;;;;5073978;28;20491;-50
2021/04/12 00:09:40;;;;;;;5.00;4.50;;;7.30;99.90;;;;;;5074009;28;20438;-49
2021/04/12 00:12:12;;;;;;;4.77;4.20;;;6.80;99.90;;;;;;5073970;28;20533;-49
2021/04/12 00:14:42;;;;;;;5.57;5.07;;;7.40;99.90;;;;;;5073703;28;20874;-50
2021/04/12 00:17:14;;;;;;;5.43;4.00;;;7.20;99.90;;;;;;5074342;28;20451;-49
2021/04/12 00:19:51;;;;;;;6.10;4.30;;;7.30;99.90;;;;;;5073912;28;20462;-49
2021/04/12 00:22:23;;;;;;;4.70;4.30;;;7.20;99.90;;;;;;5073951;28;20459;-50
2021/04/12 00:24:56;;;;;;;7.33;4.83;;;7.20;99.90;;;;;;5073835;28;20924;-50
2021/04/12 00:27:27;;;;;;;5.17;4.77;;;6.80;99.90;;;;;;5073934;28;20490;-49
2021/04/12 00:29:57;;;;;;;5.53;4.40;;;7.30;99.90;;;;;;5072534;28;20536;-49
2021/04/12 00:32:28;;;;;;;4.00;3.67;;;6.60;99.90;;;;;;5073500;28;20868;-50
2021/04/12 00:35:01;;;;;;;4.70;4.30;;;7.00;99.90;;;;;;5073809;28;20454;-49
2021/04/12 00:37:33;;;;;;;4.90;4.50;;;6.90;99.90;;;;;;5073696;28;20455;-50
2021/04/12 00:40:06;;;;;;;4.27;3.87;;;7.20;99.90;;;;;;5073580;28;20480;-50
2021/04/12 00:43:01;;;;;;;4.90;4.40;;;7.20;99.90;;;;;;5073239;28;20517;-49
2021/04/12 00:46:10;;;;;;;6.53;5.93;;;6.70;99.90;;;;;;5066893;28;20560;-50
2021/04/12 00:49:01;;;;;;;4.93;4.13;;;6.60;99.90;;;;;;5060203;28;20893;-49
2021/04/12 00:51:40;;;;;;;5.00;4.50;;;6.70;99.90;;;;;;5071807;28;20539;-49
2021/04/12 00:54:37;;;;;;;7.03;4.13;;;6.90;99.90;;;;;;5071743;28;20560;-50
2021/04/12 00:57:07;;;;;;;5.17;4.67;;;6.40;99.90;;;;;;5073370;28;20457;-49
2021/04/12 00:59:45;;;;;;;6.43;5.63;;;6.70;99.90;;;;;;5071861;28;20473;-49
2021/04/12 01:02:23;;;;;;;5.50;5.00;;;6.90;99.90;;;;;;5071923;28;20972;-49
2021/04/12 01:04:59;;;;;;;5.47;4.97;;;6.90;99.90;;;;;;5071493;28;20899;-49
2021/04/12 01:07:47;;;;;;;7.77;5.57;;;6.40;99.90;;;;;;5071614;28;21025;-50
2021/04/12 01:10:41;;;;;;;6.23;5.73;;;6.30;99.90;;;;;;5073145;28;20434;-49
2021/04/12 01:13:27;;;;;;;4.93;4.50;;;6.90;99.90;;;;;;5072865;28;20426;-49
2021/04/12 01:16:27;;;;;;;8.43;5.63;;;6.70;99.90;;;;;;5069986;28;20450;-49
2021/04/12 01:19:05;;;;;;;6.90;5.53;;;6.40;99.90;;;;;;5073222;28;20796;-49
2021/04/12 01:22:10;;;;;;;6.90;5.40;;;6.90;99.90;;;;;;5073021;28;20478;-49
2021/04/12 01:25:09;;;;;;;5.80;5.30;;;6.40;99.90;;;;;;5072492;28;20918;-49
2021/04/12 01:28:27;;;;;;;6.53;5.60;;;6.60;99.90;;;;;;5032076;28;21039;-49
2021/04/12 01:31:31;;;;;;;5.17;4.67;;;6.50;99.90;;;;;;5072578;28;20481;-48
2021/04/12 01:34:37;;;;;;;5.07;4.20;;;6.80;99.90;;;;;;5072148;28;20449;-50
2021/04/12 01:37:29;;;;;;;5.47;4.97;;;6.60;99.90;;;;;;5072435;28;20812;-49
2021/04/12 01:40:14;;;;;;;6.53;5.90;;;6.50;99.90;;;;;;5072500;28;20911;-50
2021/04/12 01:42:48;;;;;;;5.83;4.20;;;6.80;99.90;;;;;;5071759;28;20980;-49
2021/04/12 01:45:23;;;;;;;6.33;5.50;;;6.10;99.90;;;;;;5072796;28;20470;-49
2021/04/12 01:48:06;;;;;;;5.17;4.67;;;6.30;99.90;;;;;;5072375;28;20838;-49
2021/04/12 01:50:56;;;;;;;8.07;6.23;;;6.70;99.90;;;;;;5072548;28;20779;-49
2021/04/12 01:53:47;;;;;;;5.20;4.70;;;6.40;99.90;;;;;;5071767;28;20434;-49
2021/04/12 01:56:36;;;;;;;5.43;4.93;;;6.30;99.90;;;;;;5072002;28;20461;-49
2021/04/12 01:59:16;;;;;;;5.40;4.90;;;6.40;99.90;;;;;;5071998;28;20596;-49
2021/04/12 02:02:04;;;;;;;5.30;4.80;;;6.30;99.90;;;;;;5071913;28;20470;-49
2021/04/12 02:04:51;;;;;;;6.40;5.57;;;6.10;99.90;;;;;;5070958;28;20427;-49
2021/04/12 02:07:40;;;;;;;5.97;5.07;;;6.20;99.90;;;;;;5071897;28;20274;-49
2021/04/12 02:10:23;;;;;;;6.27;5.60;;;6.50;99.90;;;;;;5071875;28;20524;-49
2021/04/12 02:13:01;;;;;;;5.20;4.70;;;6.40;99.90;;;;;;5071199;28;20466;-49
2021/04/12 02:15:46;;;;;;;5.87;5.13;;;6.60;99.90;;;;;;5070618;28;20453;-49
2021/04/12 02:18:34;;;;;;;6.60;5.00;;;6.30;99.90;;;;;;5070757;28;20894;-49
2021/04/12 02:21:07;;;;;;;5.57;4.80;;;6.30;99.90;;;;;;5071541;28;20553;-49
2021/04/12 02:23:46;;;;;;;5.33;4.70;;;6.40;99.90;;;;;;5071504;28;20428;-49
2021/04/12 02:26:32;;;;;;;5.73;5.23;;;6.20;99.90;;;;;;5071391;28;20880;-50
2021/04/12 02:29:11;;;;;;;5.13;4.63;;;6.10;99.90;;;;;;5071335;28;20489;-49
2021/04/12 02:31:47;;;;;;;4.93;4.43;;;6.10;99.90;;;;;;5071722;28;20225;-50
2021/04/12 02:34:30;;;;;;;6.03;4.90;;;6.10;99.90;;;;;;5071634;28;20533;-48
2021/04/12 02:37:09;;;;;;;5.83;4.47;;;6.20;99.90;;;;;;5071218;28;20497;-47
2021/04/12 02:39:49;;;;;;;5.47;4.97;;;6.00;99.90;;;;;;5071570;28;20842;-49
2021/04/12 02:42:24;;;;;;;6.05;5.25;;;5.60;99.90;;;;;;5071409;28;20281;-49
2021/04/12 02:45:11;;;;;;;4.57;4.17;;;6.20;99.90;;;;;;5071434;28;20464;-47
2021/04/12 02:47:56;;;;;;;5.87;4.70;;;6.00;99.90;;;;;;5069737;28;20497;-48
2021/04/12 02:50:37;;;;;;;4.63;4.23;;;6.10;99.90;;;;;;5071202;28;20426;-49
2021/04/12 02:53:23;;;;;;;6.90;5.30;;;6.20;99.90;;;;;;5070680;28;20457;-49
2021/04/12 02:56:11;;;;;;;4.97;4.57;;;5.60;99.90;;;;;;5071147;28;20213;-48
2021/04/12 02:59:10;;;;;;;5.07;4.60;;;5.90;99.90;;;;;;5071028;28;20500;-49
2021/04/12 03:01:50;;;;;;;6.00;5.00;;;5.90;99.90;;;;;;5070931;28;20518;-49
2021/04/12 03:04:27;;;;;;;5.50;5.00;;;6.10;99.90;;;;;;5071276;28;20529;-49
2021/04/12 03:07:24;;;;;;;5.77;5.17;;;6.30;99.90;;;;;;5071324;28;20661;-49
2021/04/12 03:10:20;;;;;;;5.37;4.87;;;6.00;99.90;;;;;;5071204;28;20458;-48
2021/04/12 03:13:10;;;;;;;6.10;5.50;;;6.20;99.90;;;;;;5071121;28;20438;-49
2021/04/12 03:16:13;;;;;;;7.50;5.50;;;6.50;99.90;;;;;;5071131;28;20472;-48
2021/04/12 03:19:10;;;;;;;8.40;5.43;;;6.10;99.90;;;;;;5070180;28;20553;-49
2021/04/12 03:22:10;;;;;;;5.30;4.80;;;6.10;99.90;;;;;;5070173;28;20517;-48
2021/04/12 03:24:47;;;;;;;6.40;5.80;;;6.40;99.90;;;;;;5069867;28;20595;-49
2021/04/12 03:27:32;;;;;;;6.37;5.70;;;6.30;99.90;;;;;;5070132;28;20942;-48
2021/04/12 03:30:18;;;;;;;6.17;5.27;;;6.20;99.90;;;;;;5070232;28;20433;-49
2021/04/12 03:33:04;;;;;;;6.47;5.80;;;6.00;99.90;;;;;;5068623;28;20921;-48
2021/04/12 03:35:44;;;;;;;6.97;5.70;;;6.10;99.90;;;;;;5070049;28;20516;-48
2021/04/12 03:38:31;;;;;;;8.45;6.22;;;5.90;99.90;;;;;;5069946;28;20222;-49
2021/04/12 03:41:51;;;;;;;6.90;6.00;;;6.30;99.90;;;;;;5070625;28;20231;-47
2021/04/12 03:44:31;;;;;;;6.20;5.60;;;6.40;99.90;;;;;;5068259;28;20540;-48
2021/04/12 03:47:28;;;;;;;8.45;6.32;;;6.30;99.90;;;;;;5069804;28;20226;-48
2021/04/12 03:50:30;;;;;;;7.00;5.33;;;6.00;99.90;;;;;;5069989;28;20579;-49
2021/04/12 03:53:24;;;;;;;6.27;5.47;;;6.40;99.90;;;;;;5069831;28;20473;-49
2021/04/12 03:56:09;;;;;;;6.47;5.73;;;6.40;99.90;;;;;;5069969;28;20465;-50
2021/04/12 03:59:15;;;;;;;9.13;7.30;;;6.20;99.90;;;;;;5069850;28;20449;-48
2021/04/12 04:02:18;;;;;;;8.33;5.60;;;6.40;99.90;;;;;;5057970;28;20589;-49
2021/04/12 04:05:18;;;;;;;6.50;5.90;;;6.20;99.90;;;;;;5069786;28;20434;-49
2021/04/12 04:08:07;;;;;;;9.87;6.40;;;6.20;99.90;;;;;;5043138;28;20624;-49
2021/04/12 04:10:56;;;;;;;8.15;5.30;;;6.40;99.90;;;;;;5069639;28;20417;-49
2021/04/12 04:13:33;;;;;;;7.40;5.63;;;6.10;99.90;;;;;;5052118;28;20290;-49
2021/04/12 04:16:23;;;;;;;7.87;5.50;;;6.10;99.90;;;;;;5069681;28;20433;-49
2021/04/12 04:18:58;;;;;;;6.15;5.55;;;6.20;99.90;;;;;;5069454;28;20589;-48
2021/04/12 04:21:52;;;;;;;6.90;5.93;;;6.00;99.90;;;;;;5069940;28;20665;-48
2021/04/12 04:24:45;;;;;;;10.33;6.00;;;6.20;99.90;;;;;;5069712;28;20930;-49
2021/04/12 04:27:47;;;;;;;9.45;6.40;;;6.30;99.90;;;;;;5055164;28;20489;-48
2021/04/12 04:30:40;;;;;;;9.50;6.90;;;6.30;99.90;;;;;;5073345;28;20220;-49
2021/04/12 04:33:45;;;;;;;8.00;6.90;;;6.20;99.90;;;;;;5069430;28;20458;-48
2021/04/12 04:36:29;;;;;;;6.77;4.80;;;6.50;99.90;;;;;;5057092;28;20961;-50
2021/04/12 04:39:14;;;;;;;8.20;6.40;;;6.40;99.90;;;;;;5072574;28;20451;-50
2021/04/12 04:42:17;;;;;;;8.40;5.40;;;6.40;99.90;;;;;;5072760;28;20624;-49
2021/04/12 04:45:37;;;;;;;4.53;4.10;;;6.20;99.90;;;;;;5072983;28;20635;-49
2021/04/12 04:48:25;;;;;;;5.20;4.67;;;6.50;99.90;;;;;;5054176;22;20898;-50
2021/04/12 04:51:12;;;;;;;6.70;4.90;;;6.20;99.90;;;;;;5074434;28;20465;-49
2021/04/12 04:54:01;;;;;;;5.13;4.63;;;6.30;99.90;;;;;;5074238;28;20430;-49
2021/04/12 04:56:36;;;;;;;6.40;4.57;;;6.20;99.90;;;;;;5074345;28;20450;-49
2021/04/12 04:59:26;;;;;;;5.85;4.55;;;6.20;99.90;;;;;;5074407;28;20450;-49
2021/04/12 05:02:18;;;;;;;6.00;4.27;;;6.40;99.90;;;;;;5074084;28;20211;-49
2021/04/12 05:05:13;;;;;;;8.20;5.37;;;6.50;99.90;;;;;;5073917;28;20878;-49
2021/04/12 05:08:16;;;;;;;8.50;5.17;;;6.30;99.90;;;;;;5073614;28;20457;-48
2021/04/12 05:11:16;;;;;;;4.30;3.87;;;6.20;99.90;;;;;;5074470;28;20427;-48
2021/04/12 05:14:11;;;;;;;5.47;4.00;;;6.30;99.90;;;;;;5072666;28;20508;-49
2021/04/12 05:16:49;;;;;;;4.60;4.20;;;6.40;99.90;;;;;;5074270;28;20445;-49
2021/04/12 05:19:42;;;;;;;6.43;4.80;;;6.20;99.90;;;;;;5074073;28;20449;-49
2021/04/12 05:22:32;;;;;;;6.83;4.37;;;6.20;99.90;;;;;;5073680;28;20488;-48
2021/04/12 05:25:24;;;;;;;6.10;4.07;;;6.40;99.90;;;;;;5073971;28;20483;-49
2021/04/12 05:28:16;;;;;;;5.82;3.92;;;6.30;99.90;;;;;;5073443;28;20473;-50
2021/04/12 05:30:59;;;;;;;5.43;4.03;;;6.50;99.90;;;;;;5073595;28;20625;-50
2021/04/12 05:34:04;;;;;;;4.57;4.17;;;6.50;99.90;;;;;;5071396;28;20468;-48
2021/04/12 05:36:53;;;;;;;4.13;3.73;;;6.20;99.90;;;;;;5071930;28;20485;-49
2021/04/12 05:39:34;;;;;;;5.67;4.70;;;6.80;99.90;;;;;;5072237;28;20457;-48
2021/04/12 05:42:14;;;;;;;6.17;4.53;;;5.70;99.90;;;;;;5071420;28;20473;-51
2021/04/12 05:45:09;;;;;;;8.30;4.50;;;6.20;99.90;;;;;;5071863;28;20473;-49
2021/04/12 05:48:16;;;;;;;11.40;5.50;;;6.10;99.90;;;;;;5060092;28;20486;-49
2021/04/12 05:50:55;;;;;;;5.90;3.60;;;6.20;99.90;;;;;;5073437;28;20422;-49
2021/04/12 05:53:40;;;;;;;4.30;3.90;;;6.70;99.90;;;;;;5072756;28;20438;-48
2021/04/12 05:56:29;;;;;;;4.70;3.80;;;6.40;99.90;;;;;;5073025;28;20422;-49
2021/04/12 05:59:11;;;;;;;7.07;4.53;;;6.50;99.90;;;;;;5072387;28;20454;-50
2021/04/12 06:01:50;;;;;;;5.97;4.13;;;6.30;99.90;;;;;;5072649;28;20527;-50
2021/04/12 06:04:26;;;;;;;6.17;4.20;;;6.40;99.90;;;;;;5072118;28;20923;-49
2021/04/12 06:07:41;;;;;;;5.20;3.50;;;6.40;99.90;;;;;;5072835;28;20435;-51
2021/04/12 06:10:28;;;;;;;5.63;3.73;;;6.40;99.90;;;;;;5071204;28;20421;-49
2021/04/12 06:13:22;;;;;;;7.17;4.30;;;6.60;99.90;;;;;;5072294;28;20837;-50
2021/04/12 06:16:28;;;;;;;7.97;3.33;;;6.40;99.90;;;;;;5071325;28;20518;-48
2021/04/12 06:19:32;;;;;;;8.18;5.20;;;6.40;99.90;;;;;;5066503;28;20508;-48
2021/04/12 06:22:13;;;;;;;4.43;3.83;;;6.60;99.90;;;;;;5072572;28;20207;-50
2021/04/12 06:25:09;;;;;;;3.97;2.60;;;6.80;99.90;;;;;;5072481;28;20906;-49
2021/04/12 06:28:10;;;;;;;6.07;3.13;;;6.30;99.90;;;;;;5072517;28;20449;-50
2021/04/12 06:31:22;;;;;;;5.20;3.20;;;6.60;99.90;;;;;;5057878;28;21016;-49
2021/04/12 06:34:02;;;;;;;7.43;3.37;;;6.70;99.90;;;;;;5071767;28;20442;-49
2021/04/12 06:36:39;;;;;;;4.10;3.43;;;6.80;99.90;;;;;;5072452;28;20433;-50
2021/04/12 06:39:22;;;;;;;6.33;3.30;;;6.80;99.90;;;;;;5072107;28;20449;-48
2021/04/12 06:42:26;;;;;;;4.73;2.97;;;6.20;99.90;;;;;;5072523;28;20481;-50
2021/04/12 06:45:33;;;;;;;8.00;2.70;;;6.60;99.90;;;;;;5071891;28;20480;-49
2021/04/12 06:48:33;;;;;;;3.90;2.67;;;6.60;99.90;;;;;;5071685;28;20456;-48
2021/04/12 06:51:32;;;;;;;3.47;2.20;;;6.70;99.90;;;;;;5071611;28;20453;-49
2021/04/12 06:54:31;;;;;;;3.70;2.50;;;6.50;99.90;;;;;;5044661;28;20509;-50
2021/04/12 06:57:40;;;;;;;4.60;2.83;;;6.70;99.90;;;;;;5071855;28;20446;-49
2021/04/12 07:00:55;;;;;;;3.50;2.93;;;6.30;99.90;;;;;;5072165;28;20448;-49
2021/04/12 07:04:01;;;;;;;3.23;2.70;;;6.60;99.90;;;;;;4989810;28;20489;-50
2021/04/12 07:06:51;;;;;;;6.13;3.43;;;6.40;99.90;;;;;;5071787;28;20433;-49
2021/04/12 07:09:43;;;;;;;3.57;2.30;;;6.60;99.90;;;;;;5071612;28;20524;-50
2021/04/12 07:12:51;;;;;;;5.73;3.40;;;6.50;99.90;;;;;;5071883;28;20472;-49
2021/04/12 07:15:54;;;;;;;15.70;10.20;;;6.60;99.90;;;;;;5071392;28;20781;-50
2021/04/12 07:18:56;;;;;;;12.47;8.60;;;6.60;99.90;;;;;;5072593;28;20467;-50
2021/04/12 07:21:59;;;;;;;9.17;4.40;;;6.80;99.90;;;;;;5072500;28;20481;-48
2021/04/12 07:24:50;;;;;;;3.70;2.70;;;6.90;99.90;;;;;;5065154;28;20446;-49
2021/04/12 07:27:46;;;;;;;5.63;3.23;;;6.70;99.90;;;;;;5070666;28;20451;-49
2021/04/12 07:30:36;;;;;;;5.30;3.93;;;6.90;99.90;;;;;;5071906;28;20435;-49
2021/04/12 07:33:20;;;;;;;12.50;8.27;;;7.40;99.90;;;;;;5070968;28;20428;-49
2021/04/12 07:36:23;;;;;;;11.90;6.07;;;7.50;99.90;;;;;;5069595;28;20946;-49
2021/04/12 07:39:36;;;;;;;10.77;5.70;;;6.50;99.90;;;;;;5071214;28;20450;-49
2021/04/12 07:42:29;;;;;;;9.77;3.40;;;7.20;99.90;;;;;;5052228;28;20486;-49
2021/04/12 07:45:41;;;;;;;2.93;2.47;;;7.20;99.90;;;;;;5070954;28;20438;-49
2021/04/12 07:48:41;;;;;;;4.60;2.80;;;6.90;99.90;;;;;;5071080;28;20911;-50
2021/04/12 07:51:40;;;;;;;5.90;3.60;;;7.00;99.90;;;;;;5065013;28;20458;-49
2021/04/12 07:54:48;;;;;;;4.83;2.30;;;7.10;99.90;;;;;;5070932;28;20454;-49
2021/04/12 07:57:47;;;;;;;4.90;3.10;;;7.00;99.90;;;;;;5071703;28;20882;-49
2021/04/12 08:00:50;;;;;;;5.23;3.17;;;7.50;99.90;;;;;;5071392;28;20435;-50
2021/04/12 08:03:47;;;;;;;8.77;3.80;;;7.60;99.90;;;;;;5074959;28;20430;-49
2021/04/12 08:06:47;;;;;;;7.50;3.50;;;7.20;99.90;;;;;;5074890;28;20492;-49
2021/04/12 08:09:38;;;;;;;6.57;4.03;;;6.70;99.90;;;;;;5031356;28;20474;-49
2021/04/12 08:12:38;;;;;;;4.90;2.50;;;7.40;99.90;;;;;;5058177;28;20451;-50
2021/04/12 08:15:39;;;;;;;4.10;2.30;;;7.10;99.90;;;;;;5074878;28;20824;-49
2021/04/12 08:18:30;;;;;;;3.20;2.63;;;7.50;99.90;;;;;;5074432;28;20493;-49
2021/04/12 08:21:35;;;;;;;7.07;4.97;;;7.50;99.90;;;;;;5074694;28;20494;-49
2021/04/12 08:24:44;;;;;;;5.43;2.73;;;7.60;99.90;;;;;;5074636;28;20546;-49
2021/04/12 08:27:42;;;;;;;6.50;3.50;;;7.70;99.90;;;;;;5074464;28;20438;-48
2021/04/12 08:30:53;;;;;;;6.93;3.20;;;7.50;99.90;;;;;;5073261;28;20911;-49
2021/04/12 08:34:08;;;;;;;4.00;2.67;;;7.90;99.90;;;;;;5074731;28;20951;-49
2021/04/12 08:37:04;;;;;;;8.30;5.90;;;7.60;99.90;;;;;;5074932;28;20438;-50
2021/04/12 08:40:07;;;;;;;11.57;6.07;;;7.50;99.70;;;;;;5074653;28;20883;-50
2021/04/12 08:43:07;;;;;;;24.87;15.17;;;7.70;99.50;;;;;;5074263;28;20466;-48
2021/04/12 08:46:18;;;;;;;13.23;9.63;;;8.10;99.70;;;;;;5073153;28;20447;-50
2021/04/12 08:49:14;;;;;;;16.03;9.90;;;8.00;99.90;;;;;;4992740;28;20865;-48
2021/04/12 08:52:08;;;;;;;4.43;1.87;;;8.40;99.90;;;;;;5072011;28;20487;-49
2021/04/12 08:55:08;;;;;;;4.13;2.97;;;8.40;99.70;;;;;;5057001;28;20454;-49
2021/04/12 08:58:01;;;;;;;8.00;2.80;;;8.40;99.30;;;;;;5073910;28;20953;-50
2021/04/12 09:00:47;;;;;;;6.67;3.17;;;8.10;99.00;;;;;;5073720;28;20551;-49
2021/04/12 09:03:49;;;;;;;3.93;2.30;;;8.40;99.30;;;;;;5073440;28;20938;-49
2021/04/12 09:06:43;;;;;;;5.13;2.20;;;8.40;98.50;;;;;;5074272;28;20434;-50
2021/04/12 09:09:48;;;;;;;4.33;1.80;;;8.40;98.40;;;;;;5073635;28;20615;-49
2021/04/12 09:12:39;;;;;;;10.20;2.40;;;8.40;97.60;;;;;;5072882;28;20442;-49
2021/04/12 09:15:56;;;;;;;5.17;1.83;;;8.90;97.90;;;;;;5073389;28;20433;-49
2021/04/12 09:18:58;;;;;;;5.47;2.77;;;8.70;97.60;;;;;;5072239;28;20462;-49
2021/04/12 09:21:52;;;;;;;4.10;2.03;;;8.50;97.50;;;;;;5073967;28;21005;-48
2021/04/12 09:24:56;;;;;;;4.07;2.10;;;8.90;96.80;;;;;;5073816;28;20421;-50
2021/04/12 09:27:50;;;;;;;2.63;1.53;;;8.90;97.00;;;;;;5072716;28;20515;-49
2021/04/12 09:30:53;;;;;;;4.43;2.03;;;8.70;96.60;;;;;;5071899;28;20432;-49
2021/04/12 09:33:52;;;;;;;4.07;1.90;;;8.70;96.90;;;;;;5072503;28;20436;-50
2021/04/12 09:37:04;;;;;;;6.07;2.00;;;9.10;96.80;;;;;;5045923;28;20449;-50
2021/04/12 09:39:41;;;;;;;6.07;2.40;;;9.20;96.40;;;;;;5072224;28;20440;-49
2021/04/12 09:42:47;;;;;;;7.17;2.63;;;8.80;96.20;;;;;;5072404;28;20468;-50
2021/04/12 09:45:42;;;;;;;5.90;2.23;;;8.90;95.90;;;;;;5041914;28;20976;-49
2021/04/12 09:48:42;;;;;;;5.20;2.10;;;8.80;95.90;;;;;;5072019;28;20479;-49
2021/04/12 09:51:48;;;;;;;3.10;2.13;;;9.50;95.50;;;;;;5045650;28;20495;-50
2021/04/12 09:54:50;;;;;;;4.10;2.10;;;9.20;95.30;;;;;;5055102;28;20446;-50
2021/04/12 09:58:06;;;;;;;2.80;1.60;;;9.10;94.90;;;;;;5072424;28;20457;-49
2021/04/12 10:01:03;;;;;;;3.63;2.67;;;8.60;94.70;;;;;;5071923;28;20468;-49
2021/04/12 10:04:13;;;;;;;5.37;2.20;;;8.90;95.30;;;;;;5072249;28;20491;-49
2021/04/12 10:07:12;;;;;;;3.73;2.33;;;9.20;95.80;;;;;;5071815;28;20429;-50
2021/04/12 10:09:55;;;;;;;4.33;2.90;;;9.40;95.70;;;;;;5072065;28;20498;-49
2021/04/12 10:12:37;;;;;;;5.53;2.30;;;9.40;94.90;;;;;;5071750;28;20441;-49
2021/04/12 10:15:13;;;;;;;2.90;2.30;;;9.30;94.00;;;;;;5071747;28;20425;-50
2021/04/12 10:17:46;;;;;;;4.23;1.97;;;9.60;93.70;;;;;;5072115;28;20488;-48
2021/04/12 10:20:19;;;;;;;4.30;2.60;;;9.40;93.20;;;;;;5071713;28;20448;-50
2021/04/12 10:22:53;;;;;;;6.30;2.37;;;9.60;93.30;;;;;;5071758;28;20451;-50
2021/04/12 10:25:31;;;;;;;4.63;2.50;;;9.00;93.40;;;;;;5071492;28;20504;-49
2021/04/12 10:28:08;;;;;;;7.27;2.20;;;9.20;92.80;;;;;;5071464;28;20453;-50
2021/04/12 10:30:41;;;;;;;7.00;3.10;;;9.30;92.90;;;;;;5072243;28;20437;-49
2021/04/12 10:33:15;;;;;;;5.67;2.47;;;9.30;92.90;;;;;;5071603;28;20429;-50
2021/04/12 10:35:46;;;;;;;8.77;3.30;;;9.50;93.00;;;;;;5072085;28;20434;-49
2021/04/12 10:38:19;;;;;;;4.63;2.60;;;9.70;93.60;;;;;;5071482;28;20458;-50
2021/04/12 10:40:47;;;;;;;4.17;1.90;;;9.20;92.70;;;;;;5071892;28;20470;-49
2021/04/12 10:43:21;;;;;;;5.67;2.33;;;9.70;93.20;;;;;;5071239;28;20544;-49
2021/04/12 10:45:54;;;;;;;4.87;2.33;;;9.50;92.50;;;;;;5071910;28;20445;-50
2021/04/12 10:48:26;;;;;;;2.60;2.40;;;9.70;92.20;;;;;;5096822;22;21027;-46
2021/04/12 10:51:01;;;;;;;4.90;2.50;;;9.60;92.20;;;;;;5071869;28;20429;-46
2021/04/12 10:53:48;;;;;;;7.57;3.50;;;9.40;92.50;;;;;;5071849;28;20441;-46
2021/04/12 10:56:18;;;;;;;6.13;2.60;;;9.60;92.80;;;;;;5071418;28;20484;-45
2021/04/12 10:59:01;;;;;;;5.00;2.93;;;9.30;92.90;;;;;;5071733;28;20457;-45
2021/04/12 11:01:40;;;;;;;6.07;2.00;;;9.70;92.90;;;;;;5071219;28;20792;-45
2021/04/12 11:04:33;;;;;;;4.37;2.10;;;9.20;92.70;;;;;;5071729;28;20877;-45
2021/04/12 11:07:11;;;;;;;5.97;2.70;;;9.60;92.80;;;;;;5072473;28;20443;-45
2021/04/12 11:09:59;;;;;;;8.20;3.30;;;9.80;92.20;;;;;;5071291;28;20468;-45
2021/04/12 11:12:47;;;;;;;4.90;2.90;;;9.40;91.80;;;;;;5071089;28;20908;-45
2021/04/12 11:15:34;;;;;;;4.00;2.97;;;9.90;91.80;;;;;;5071852;28;20491;-45
2021/04/12 11:18:12;;;;;;;5.03;2.50;;;10.20;91.40;;;;;;5070171;28;20470;-44
2021/04/12 11:20:44;;;;;;;3.30;2.40;;;9.80;91.60;;;;;;5071751;28;20480;-46
2021/04/12 11:23:18;;;;;;;5.00;2.47;;;10.00;90.40;;;;;;5072563;28;20440;-46
2021/04/12 11:25:52;;;;;;;4.67;2.53;;;9.70;91.10;;;;;;5072611;28;20696;-46
2021/04/12 11:28:33;;;;;;;3.40;2.33;;;9.50;90.80;;;;;;5071495;28;20555;-46
2021/04/12 11:31:06;;;;;;;4.63;2.30;;;10.00;90.40;;;;;;5072582;28;20426;-46
2021/04/12 11:33:45;;;;;;;3.53;2.50;;;9.40;90.60;;;;;;5072345;28;20430;-46
2021/04/12 11:36:25;;;;;;;5.00;2.23;;;9.40;91.10;;;;;;5075048;28;20495;-45
2021/04/12 11:39:02;;;;;;;4.87;2.47;;;9.30;91.00;;;;;;5075985;28;20453;-45
2021/04/12 11:41:33;;;;;;;5.07;2.30;;;9.90;91.40;;;;;;5076120;28;20593;-45
2021/04/12 11:44:03;;;;;;;7.47;2.70;;;9.80;91.50;;;;;;5075923;28;20430;-46
2021/04/12 11:46:45;;;;;;;9.93;2.57;;;9.00;90.80;;;;;;5075570;28;20429;-45
2021/04/12 11:49:20;;;;;;;4.83;2.10;;;9.80;90.60;;;;;;5076367;28;20468;-47
2021/04/12 11:51:56;;;;;;;7.10;2.90;;;10.10;90.30;;;;;;5076591;28;20425;-45
2021/04/12 11:54:35;;;;;;;7.63;2.70;;;9.50;90.50;;;;;;5076248;28;20433;-45
2021/04/12 11:57:15;;;;;;;12.03;2.27;;;9.80;90.60;;;;;;5077466;28;20440;-44
2021/04/12 11:59:49;;;;;;;6.50;2.83;;;10.30;89.50;;;;;;5077740;28;20844;-44
2021/04/12 12:02:26;;;;;;;3.93;2.20;;;9.80;90.00;;;;;;5075496;28;20592;-45
2021/04/12 12:04:57;;;;;;;7.77;2.20;;;10.00;88.50;;;;;;5075772;28;20556;-46
2021/04/12 12:07:35;;;;;;;4.27;3.37;;;9.50;90.00;;;;;;5078273;28;20433;-45
2021/04/12 12:10:13;;;;;;;6.20;2.40;;;9.70;90.30;;;;;;5078308;28;20516;-46
2021/04/12 12:12:53;;;;;;;3.20;2.10;;;10.00;88.80;;;;;;5076265;28;20426;-45
2021/04/12 12:15:26;;;;;;;7.30;2.53;;;9.70;88.40;;;;;;5076328;28;20499;-45
2021/04/12 12:18:03;;;;;;;5.20;2.60;;;9.90;87.60;;;;;;5075502;28;20553;-44
2021/04/12 12:20:42;;;;;;;5.67;2.10;;;9.80;85.60;;;;;;5074595;28;20444;-46
2021/04/12 12:23:39;;;;;;;3.23;1.73;;;10.00;85.00;;;;;;5073777;28;20498;-46
2021/04/12 12:26:12;;;;;;;3.40;2.00;;;10.30;84.30;;;;;;5074625;28;20524;-44
2021/04/12 12:28:42;;;;;;;4.03;1.87;;;10.00;83.90;;;;;;5074342;28;20485;-45
2021/04/12 12:34:09;;;;;;;5.73;2.43;;;10.10;80.90;;;;;;5074183;28;20809;-45
2021/04/12 12:36:44;;;;;;;3.87;2.03;;;10.10;81.90;;;;;;5072933;28;20456;-45
2021/04/12 12:39:22;;;;;;;5.00;2.00;;;10.40;82.10;;;;;;5072966;28;20508;-45
2021/04/12 12:41:50;;;;;;;5.37;1.70;;;10.30;81.40;;;;;;5073901;28;20473;-46
2021/04/12 12:44:22;;;;;;;4.80;1.80;;;10.40;80.30;;;;;;5073677;28;20532;-46
2021/04/12 12:46:51;;;;;;;7.20;2.03;;;10.20;78.80;;;;;;5073798;28;20485;-46
2021/04/12 12:49:22;;;;;;;2.90;1.60;;;10.60;80.60;;;;;;5073194;28;20532;-44
2021/04/12 12:51:51;;;;;;;4.80;1.90;;;10.50;77.70;;;;;;5085455;28;20450;-47
2021/04/12 12:54:26;;;;;;;3.83;2.30;;;10.70;77.80;;;;;;5073874;28;20558;-45
2021/04/12 12:57:00;;;;;;;6.07;1.83;;;10.10;76.30;;;;;;5073997;28;20456;-45
2021/04/12 12:59:33;;;;;;;1.70;1.27;;;10.60;75.30;;;;;;5074155;28;20848;-47
2021/04/12 13:02:14;;;;;;;4.23;1.50;;;10.40;74.80;;;;;;5074263;28;20462;-46
2021/04/12 13:04:53;;;;;;;4.83;2.30;;;10.30;73.40;;;;;;5072919;28;20446;-44
2021/04/12 13:07:22;;;;;;;4.93;2.10;;;10.40;73.10;;;;;;5074125;28;20448;-46
2021/04/12 13:09:58;;;;;;;5.93;2.03;;;10.20;73.10;;;;;;5072896;28;20424;-45
2021/04/12 13:12:31;;;;;;;3.30;1.67;;;10.40;72.20;;;;;;5074396;28;20538;-45
2021/04/12 13:15:10;;;;;;;2.80;1.30;;;10.60;73.10;;;;;;5081148;28;20555;-45
2021/04/12 13:17:39;;;;;;;2.90;1.70;;;10.50;73.30;;;;;;5093987;28;20441;-44
2021/04/12 13:20:11;;;;;;;3.30;1.57;;;10.50;73.70;;;;;;5094601;28;20478;-45
2021/04/12 13:22:40;;;;;;;3.10;2.20;;;10.40;72.30;;;;;;5096255;28;20784;-45
2021/04/12 13:25:22;;;;;;;5.90;1.97;;;10.50;73.30;;;;;;5094078;28;20443;-45
2021/04/12 13:27:52;;;;;;;5.77;2.20;;;10.70;73.50;;;;;;5095313;28;20484;-44
2021/04/12 13:30:23;;;;;;;3.90;1.50;;;10.80;71.20;;;;;;5095344;28;20889;-45
2021/04/12 13:32:56;;;;;;;4.33;2.23;;;11.00;70.60;;;;;;5092811;28;20445;-45
2021/04/12 13:35:25;;;;;;;3.83;1.40;;;10.50;68.30;;;;;;5094425;28;20903;-45
2021/04/12 13:38:06;;;;;;;8.10;2.07;;;10.40;69.10;;;;;;5095698;28;21064;-44
2021/04/12 13:40:41;;;;;;;4.50;2.10;;;10.50;69.30;;;;;;5093462;28;20564;-46
2021/04/12 13:43:10;;;;;;;2.70;1.33;;;10.40;68.90;;;;;;5094138;28;20432;-44
2021/04/12 13:45:39;;;;;;;6.27;2.30;;;10.60;67.40;;;;;;5092677;28;20467;-47
2021/04/12 13:48:09;;;;;;;3.07;1.53;;;10.50;66.70;;;;;;5092488;28;20992;-45
2021/04/12 13:50:47;;;;;;;4.30;2.87;;;10.70;67.90;;;;;;5092700;28;20436;-45
2021/04/12 13:53:16;;;;;;;7.67;2.90;;;10.70;67.60;;;;;;5092138;28;20445;-44
2021/04/12 13:55:50;;;;;;;8.50;2.83;;;10.70;67.20;;;;;;5092981;28;20425;-47
2021/04/12 13:58:25;;;;;;;3.13;1.50;;;11.10;68.40;;;;;;5092298;28;20484;-45
2021/04/12 14:00:59;;;;;;;3.07;1.80;;;10.90;68.00;;;;;;5092218;28;20447;-46
2021/04/12 14:03:28;;;;;;;4.40;1.50;;;11.20;65.90;;;;;;5091992;28;20808;-45
2021/04/12 14:06:03;;;;;;;3.53;1.70;;;11.30;65.40;;;;;;5092255;28;20459;-46
2021/04/12 14:08:34;;;;;;;3.43;1.80;;;11.00;65.90;;;;;;5092428;28;20493;-45
2021/04/12 14:11:05;;;;;;;3.80;1.73;;;11.20;66.40;;;;;;5092715;28;20437;-46
2021/04/12 14:13:35;;;;;;;5.13;2.03;;;10.60;65.50;;;;;;5091585;28;20700;-46
2021/04/12 14:16:06;;;;;;;4.57;2.40;;;11.00;66.80;;;;;;5092237;28;20538;-45
2021/04/12 14:18:37;;;;;;;4.00;2.00;;;11.70;67.20;;;;;;5092724;28;20515;-45
2021/04/12 14:21:11;;;;;;;3.33;2.00;;;11.60;66.80;;;;;;5092260;28;20556;-45
2021/04/12 14:23:47;;;;;;;3.97;1.97;;;11.50;65.60;;;;;;5091985;28;20485;-45
2021/04/12 14:26:22;;;;;;;6.03;2.00;;;11.40;66.30;;;;;;5092171;28;20443;-45
2021/04/12 14:28:51;;;;;;;7.17;1.90;;;11.60;65.60;;;;;;5091951;28;20531;-45
2021/04/12 14:31:22;;;;;;;3.53;1.40;;;11.40;64.80;;;;;;5092347;28;20491;-45
2021/04/12 14:33:53;;;;;;;5.80;1.57;;;11.40;61.60;;;;;;5092003;28;20795;-44
2021/04/12 14:36:24;;;;;;;4.90;1.90;;;11.30;61.90;;;;;;5092446;28;20627;-46
2021/04/12 14:38:54;;;;;;;4.80;1.77;;;10.90;61.20;;;;;;5091586;28;20453;-45